createdAt,value
2019-05-23T00:00:34.418Z,98973.88
2019-05-23T00:03:04.487Z,98974.34
2019-05-23T00:05:42.978Z,98970.25
2019-05-23T00:08:17.009Z,98973.41
2019-05-23T00:10:53.204Z,98970.75
2019-05-23T00:13:40.985Z,98970.79
2019-05-23T00:16:10.035Z,98960.48
2019-05-23T00:18:39.437Z,98972.00
2019-05-23T00:21:09.297Z,98970.18
2019-05-23T00:23:39.238Z,98969.70
2019-05-23T00:26:08.072Z,98969.78
2019-05-23T00:28:37.112Z,98974.64
2019-05-23T00:31:15.771Z,98980.64
2019-05-23T00:33:44.855Z,98979.30
2019-05-23T00:36:14.130Z,98974.39
2019-05-23T00:38:44.125Z,98978.44
2019-05-23T00:41:13.761Z,98977.83
2019-05-23T00:43:43.179Z,98978.80
2019-05-23T00:46:12.431Z,98974.94
2019-05-23T00:48:41.797Z,98981.41
2019-05-23T00:51:11.640Z,98979.09
2019-05-23T00:53:40.469Z,98978.21
2019-05-23T00:56:09.894Z,98979.05
2019-05-23T00:58:39.268Z,98976.41
2019-05-23T01:01:08.998Z,98981.48
2019-05-23T01:03:39.003Z,98977.00
2019-05-23T01:06:07.745Z,98985.77
2019-05-23T01:08:38.052Z,98986.61
2019-05-23T01:11:08.028Z,98983.21
2019-05-23T01:13:37.488Z,98980.08
2019-05-23T01:16:06.869Z,98981.38
2019-05-23T01:18:36.004Z,98977.98
2019-05-23T01:21:22.828Z,98980.00
2019-05-23T01:23:56.267Z,98977.39
2019-05-23T01:26:26.325Z,98972.87
2019-05-23T01:28:55.427Z,98978.22
2019-05-23T01:31:27.283Z,98976.02
2019-05-23T01:33:56.647Z,98980.55
2019-05-23T01:36:25.609Z,98981.21
2019-05-23T01:38:54.707Z,98983.05
2019-05-23T01:41:23.879Z,98989.31
2019-05-23T01:43:54.050Z,98981.41
2019-05-23T01:46:22.868Z,98990.30
2019-05-23T01:48:51.580Z,98978.84
2019-05-23T01:51:22.206Z,98979.71
2019-05-23T01:53:52.069Z,98982.25
2019-05-23T01:56:21.157Z,98976.22
2019-05-23T01:58:51.121Z,98982.11
2019-05-23T02:01:22.125Z,98987.16
2019-05-23T02:03:51.138Z,98984.42
2019-05-23T02:06:19.925Z,98981.86
2019-05-23T02:08:48.660Z,98984.52
2019-05-23T02:11:19.439Z,98984.13
2019-05-23T02:13:48.477Z,98982.35
2019-05-23T02:16:18.090Z,98979.50
2019-05-23T02:18:47.599Z,98981.55
2019-05-23T02:21:17.653Z,98981.59
2019-05-23T02:23:47.264Z,98976.88
2019-05-23T02:26:16.135Z,98987.63
2019-05-23T02:28:45.176Z,98982.20
2019-05-23T02:31:14.179Z,98982.94
2019-05-23T02:33:43.577Z,98982.58
2019-05-23T02:36:12.794Z,98981.77
2019-05-23T02:39:00.618Z,98982.45
2019-05-23T02:41:40.648Z,98979.13
2019-05-23T02:44:19.064Z,98983.62
2019-05-23T02:46:51.850Z,98977.17
2019-05-23T02:49:22.985Z,98984.00
2019-05-23T02:51:53.776Z,98970.42
2019-05-23T02:54:25.853Z,98979.66
2019-05-23T02:56:57.713Z,98974.63
2019-05-23T02:59:41.896Z,98974.00
2019-05-23T03:02:46.219Z,98973.55
2019-05-23T03:05:18.179Z,98964.97
2019-05-23T03:07:48.038Z,98969.09
2019-05-23T03:10:19.842Z,98967.78
2019-05-23T03:12:49.475Z,98962.11
2019-05-23T03:15:19.279Z,98967.13
2019-05-23T03:17:52.666Z,98964.47
2019-05-23T03:20:22.111Z,98959.99
2019-05-23T03:23:01.922Z,98957.80
2019-05-23T03:26:00.255Z,98951.86
2019-05-23T03:28:32.732Z,98958.67
2019-05-23T03:31:27.258Z,98948.80
2019-05-23T03:33:36.977Z,98960.77
2019-05-23T03:36:07.629Z,98958.28
2019-05-23T03:38:36.763Z,98958.28
2019-05-23T03:41:08.092Z,98964.16
2019-05-23T03:43:37.028Z,98965.06
2019-05-23T03:46:09.048Z,98963.31
2019-05-23T03:48:38.556Z,98960.72
2019-05-23T03:51:09.323Z,98963.42
2019-05-23T03:53:38.479Z,98964.47
2019-05-23T03:56:07.729Z,98962.92
2019-05-23T03:58:37.557Z,98955.41
2019-05-23T04:01:09.153Z,98959.89
2019-05-23T04:03:40.135Z,98953.34
2019-05-23T04:06:09.400Z,98953.41
2019-05-23T04:08:38.810Z,98958.66
2019-05-23T04:11:08.083Z,98951.66
2019-05-23T04:13:36.917Z,98948.55
2019-05-23T04:16:06.547Z,98942.39
2019-05-23T04:18:36.019Z,98941.20
2019-05-23T04:21:04.975Z,98945.36
2019-05-23T04:23:33.863Z,98947.41
2019-05-23T04:26:03.054Z,98951.64
2019-05-23T04:28:32.170Z,98949.66
2019-05-23T04:31:01.692Z,98956.66
2019-05-23T04:33:30.596Z,98958.71
2019-05-23T04:35:59.657Z,98956.23
2019-05-23T04:38:28.447Z,98957.14
2019-05-23T04:40:57.448Z,98952.91
2019-05-23T04:43:26.351Z,98954.86
2019-05-23T04:45:55.123Z,98953.41
2019-05-23T04:48:31.373Z,98953.45
2019-05-23T04:51:13.090Z,98957.34
2019-05-23T04:54:09.106Z,98960.81
2019-05-23T05:00:07.529Z,98973.50
2019-05-23T05:06:24.964Z,98973.66
2019-05-23T05:09:41.550Z,98971.16
2019-05-23T05:12:31.481Z,98969.94
2019-05-23T05:15:16.501Z,98976.48
2019-05-23T05:18:04.755Z,98979.27
2019-05-23T05:20:57.537Z,98976.22
2019-05-23T05:27:12.001Z,98979.21
2019-05-23T05:33:16.585Z,98978.55
2019-05-23T05:35:52.457Z,98980.08
2019-05-23T05:38:52.565Z,98981.47
2019-05-23T05:41:55.807Z,98988.13
2019-05-23T05:44:36.094Z,98958.11
2019-05-23T05:48:29.193Z,98980.11
2019-05-23T05:50:51.401Z,98985.08
2019-05-23T05:53:32.885Z,98990.09
2019-05-23T05:59:49.469Z,98996.23
2019-05-23T06:03:04.120Z,98998.14
2019-05-23T06:06:57.317Z,99001.05
2019-05-23T06:19:38.963Z,99008.09
2019-05-23T06:29:26.251Z,99006.55
2019-05-23T06:32:56.234Z,99000.43
2019-05-23T06:35:37.552Z,98999.95
2019-05-23T06:39:16.947Z,99004.73
2019-05-23T06:43:10.250Z,99007.00
2019-05-23T06:49:27.892Z,99009.95
2019-05-23T06:52:50.098Z,99012.83
2019-05-23T06:59:14.657Z,99006.02
2019-05-23T07:02:05.181Z,99006.89
2019-05-23T07:05:42.275Z,99007.23
2019-05-23T07:08:04.984Z,99007.27
2019-05-23T07:10:59.656Z,99004.34
2019-05-23T07:21:06.278Z,99011.44
2019-05-23T07:24:20.502Z,99011.41
2019-05-23T07:34:01.802Z,99012.33
2019-05-23T07:36:58.029Z,99009.84
2019-05-23T07:39:52.417Z,99020.98
2019-05-23T07:43:24.675Z,99008.52
2019-05-23T07:46:27.674Z,99009.17
2019-05-23T07:49:34.658Z,99008.98
2019-05-23T07:56:00.317Z,99009.95
2019-05-23T07:58:49.003Z,99007.23
2019-05-23T08:01:40.724Z,99014.53
2019-05-23T08:04:58.351Z,99016.73
2019-05-23T08:11:19.232Z,99014.81
2019-05-23T08:14:39.428Z,99012.00
2019-05-23T08:17:47.762Z,99007.12
2019-05-23T08:21:05.125Z,99004.08
2019-05-23T08:24:17.465Z,99005.98
2019-05-23T08:27:35.095Z,99006.73
2019-05-23T08:30:55.744Z,99014.48
2019-05-23T08:33:52.844Z,99012.55
2019-05-23T08:37:07.223Z,99013.16
2019-05-23T08:40:27.377Z,99007.88
2019-05-23T08:46:48.572Z,99006.31
2019-05-23T08:53:49.333Z,98995.28
2019-05-23T08:56:23.401Z,98998.02
2019-05-23T08:59:37.023Z,99000.38
2019-05-23T09:06:24.977Z,98995.73
2019-05-23T09:13:32.308Z,98988.17
2019-05-23T09:17:03.112Z,98985.17
2019-05-23T09:20:30.274Z,98989.02
2019-05-23T09:23:37.759Z,98990.52
2019-05-23T09:26:58.118Z,98980.25
2019-05-23T09:29:43.493Z,98972.89
2019-05-23T09:39:49.528Z,98978.23
2019-05-23T09:49:41.472Z,98978.13
2019-05-23T09:56:25.831Z,98975.59
2019-05-23T09:59:30.610Z,98976.52
2019-05-23T10:03:00.148Z,98968.02
2019-05-23T10:06:08.004Z,98965.69
2019-05-23T10:12:23.328Z,98959.02
2019-05-23T10:14:52.131Z,98966.53
2019-05-23T10:17:21.124Z,98964.27
2019-05-23T10:20:03.176Z,98961.47
2019-05-23T10:23:04.696Z,98958.44
2019-05-23T10:25:46.292Z,98956.91
2019-05-23T10:28:30.252Z,98954.31
2019-05-23T10:31:09.286Z,98949.80
2019-05-23T10:33:49.503Z,98944.89
2019-05-23T10:36:24.008Z,98941.45
2019-05-23T10:39:36.106Z,98938.29
2019-05-23T10:42:36.682Z,98932.23
2019-05-23T10:45:14.622Z,98934.78
2019-05-23T10:48:13.577Z,98931.45
2019-05-23T10:51:08.411Z,98938.14
2019-05-23T10:53:49.022Z,98939.42
2019-05-23T10:56:42.492Z,98931.20
2019-05-23T10:59:11.815Z,98930.59
2019-05-23T11:01:41.000Z,98933.72
2019-05-23T11:04:09.725Z,98923.56
2019-05-23T11:06:38.484Z,98929.67
2019-05-23T11:09:09.062Z,98927.79
2019-05-23T11:11:38.399Z,98919.20
2019-05-23T11:14:09.205Z,98916.84
2019-05-23T11:16:38.445Z,98918.58
2019-05-23T11:19:08.777Z,98908.27
2019-05-23T11:21:37.691Z,98905.32
2019-05-23T11:24:06.815Z,98901.34
2019-05-23T11:26:36.030Z,98898.77
2019-05-23T11:29:06.301Z,98902.36
2019-05-23T11:31:35.308Z,98898.88
2019-05-23T11:34:04.849Z,98897.38
2019-05-23T11:36:36.501Z,98890.70
2019-05-23T11:39:06.887Z,98891.05
2019-05-23T11:41:35.717Z,98890.77
2019-05-23T11:44:04.635Z,98889.64
2019-05-23T11:46:35.406Z,98881.99
2019-05-23T11:49:05.334Z,98887.34
2019-05-23T11:51:35.711Z,98883.88
2019-05-23T11:54:08.318Z,98891.93
2019-05-23T11:56:37.130Z,98892.34
2019-05-23T11:59:06.441Z,98885.75
2019-05-23T12:01:54.294Z,98888.14
2019-05-23T12:04:26.432Z,98878.55
2019-05-23T12:06:59.086Z,98873.91
2019-05-23T12:09:28.138Z,98871.72
2019-05-23T12:11:56.980Z,98862.95
2019-05-23T12:14:25.884Z,98864.30
2019-05-23T12:16:56.292Z,98860.96
2019-05-23T12:19:25.306Z,98854.84
2019-05-23T12:21:54.222Z,98855.45
2019-05-23T12:24:23.172Z,98855.97
2019-05-23T12:26:52.116Z,98854.33
2019-05-23T12:29:21.197Z,98850.84
2019-05-23T12:31:50.189Z,98850.28
2019-05-23T12:34:19.038Z,98851.80
2019-05-23T12:36:47.785Z,98856.55
2019-05-23T12:39:16.601Z,98851.91
2019-05-23T12:41:45.421Z,98850.19
2019-05-23T12:44:17.550Z,98846.80
2019-05-23T12:46:45.578Z,98842.20
2019-05-23T12:49:39.622Z,98838.30
2019-05-23T12:52:11.247Z,98829.75
2019-05-23T12:54:40.144Z,98828.48
2019-05-23T12:57:09.495Z,98819.61
2019-05-23T12:59:38.320Z,98821.55
2019-05-23T13:02:11.079Z,98821.11
2019-05-23T13:04:40.555Z,98818.25
2019-05-23T13:07:10.070Z,98813.45
2019-05-23T13:09:39.647Z,98814.62
2019-05-23T13:12:08.522Z,98816.86
2019-05-23T13:14:37.341Z,98812.98
2019-05-23T13:17:07.056Z,98809.88
2019-05-23T13:19:37.178Z,98809.77
2019-05-23T13:22:07.846Z,98807.18
2019-05-23T13:24:51.912Z,98806.84
2019-05-23T13:27:07.448Z,98808.73
2019-05-23T13:29:36.821Z,98802.08
2019-05-23T13:32:07.021Z,98808.00
2019-05-23T13:34:36.290Z,98797.36
2019-05-23T13:37:07.559Z,98798.26
2019-05-23T13:39:36.548Z,98798.42
2019-05-23T13:42:05.470Z,98796.52
2019-05-23T13:44:36.057Z,98801.12
2019-05-23T13:47:05.269Z,98800.61
2019-05-23T13:49:34.303Z,98800.23
2019-05-23T13:52:03.349Z,98794.22
2019-05-23T13:54:36.171Z,98800.84
2019-05-23T13:57:07.253Z,98799.89
2019-05-23T13:59:37.650Z,98795.55
2019-05-23T14:02:08.698Z,98789.84
2019-05-23T14:04:37.544Z,98791.27
2019-05-23T14:07:08.540Z,98790.44
2019-05-23T14:09:38.446Z,98797.52
2019-05-23T14:12:20.561Z,98794.54
2019-05-23T14:14:38.838Z,98791.42
2019-05-23T14:17:28.312Z,98793.77
2019-05-23T14:19:57.071Z,98791.75
2019-05-23T14:22:26.287Z,98787.38
2019-05-23T14:24:55.154Z,98787.45
2019-05-23T14:27:33.734Z,98779.64
2019-05-23T14:30:11.291Z,98780.63
2019-05-23T14:32:41.725Z,98780.98
2019-05-23T14:35:11.382Z,98775.13
2019-05-23T14:37:44.178Z,98774.30
2019-05-23T14:40:14.920Z,98772.59
2019-05-23T14:43:02.707Z,98766.44
2019-05-23T14:45:44.797Z,98767.16
2019-05-23T14:48:24.382Z,98762.00
2019-05-23T14:51:24.411Z,98762.52
2019-05-23T14:53:58.836Z,98754.38
2019-05-23T14:56:28.842Z,98759.11
2019-05-23T14:58:57.648Z,98757.44
2019-05-23T15:01:28.479Z,98750.89
2019-05-23T15:03:57.233Z,98749.82
2019-05-23T15:06:25.977Z,98745.08
2019-05-23T15:08:54.971Z,98742.46
2019-05-23T15:11:23.697Z,98742.25
2019-05-23T15:13:52.820Z,98748.11
2019-05-23T15:16:22.031Z,98738.08
2019-05-23T15:18:50.878Z,98735.89
2019-05-23T15:21:19.699Z,98735.87
2019-05-23T15:23:48.582Z,98734.73
2019-05-23T15:26:23.000Z,98738.09
2019-05-23T15:28:47.785Z,98731.93
2019-05-23T15:31:16.699Z,98730.36
2019-05-23T15:33:45.432Z,98729.19
2019-05-23T15:36:14.268Z,98730.25
2019-05-23T15:38:43.049Z,98733.91
2019-05-23T15:41:11.875Z,98732.56
2019-05-23T15:43:40.594Z,98734.19
2019-05-23T15:46:09.502Z,98741.97
2019-05-23T15:48:38.372Z,98739.66
2019-05-23T15:51:09.397Z,98736.28
2019-05-23T15:53:46.506Z,98735.66
2019-05-23T15:56:27.868Z,98737.38
2019-05-23T15:59:00.478Z,98737.67
2019-05-23T16:01:38.815Z,98734.72
2019-05-23T16:04:11.208Z,98729.66
2019-05-23T16:06:41.392Z,98730.80
2019-05-23T16:09:27.823Z,98731.84
2019-05-23T16:11:44.193Z,98726.94
2019-05-23T16:14:13.363Z,98729.18
2019-05-23T16:16:42.795Z,98721.88
2019-05-23T16:19:12.022Z,98724.42
2019-05-23T16:21:41.227Z,98713.47
2019-05-23T16:26:38.279Z,98714.85
2019-05-23T16:29:08.048Z,98712.23
2019-05-23T16:31:38.312Z,98713.75
2019-05-23T16:34:07.356Z,98710.56
2019-05-23T16:36:36.542Z,98712.86
2019-05-23T16:39:07.430Z,98705.41
2019-05-23T16:41:36.432Z,98707.59
2019-05-23T16:44:05.356Z,98707.05
2019-05-23T16:46:34.306Z,98705.82
2019-05-23T16:49:03.273Z,98704.25
2019-05-23T16:51:32.290Z,98701.17
2019-05-23T16:54:01.822Z,98703.62
2019-05-23T16:56:36.119Z,98692.16
2019-05-23T16:59:16.953Z,98688.04
2019-05-23T17:02:07.172Z,98692.63
2019-05-23T17:05:08.406Z,98693.81
2019-05-23T17:07:40.465Z,98696.65
2019-05-23T17:10:14.111Z,98691.42
2019-05-23T17:12:50.629Z,98684.63
2019-05-23T17:15:42.656Z,98689.14
2019-05-23T17:18:27.590Z,98684.43
2019-05-23T17:21:05.248Z,98687.20
2019-05-23T17:23:51.998Z,98684.03
2019-05-23T17:26:32.653Z,98691.80
2019-05-23T17:29:02.481Z,98688.36
2019-05-23T17:31:34.555Z,98685.32
2019-05-23T17:34:03.563Z,98686.05
2019-05-23T17:36:32.380Z,98692.30
2019-05-23T17:39:01.197Z,98685.22
2019-05-23T17:41:30.118Z,98687.61
2019-05-23T17:43:58.962Z,98687.56
2019-05-23T17:46:29.289Z,98686.16
2019-05-23T17:48:58.181Z,98680.52
2019-05-23T17:51:27.442Z,98679.25
2019-05-23T17:53:56.355Z,98681.34
2019-05-23T17:56:25.477Z,98687.08
2019-05-23T17:58:54.239Z,98687.51
2019-05-23T18:01:24.702Z,98682.84
2019-05-23T18:03:53.710Z,98687.43
2019-05-23T18:06:23.096Z,98679.73
2019-05-23T18:08:51.842Z,98691.72
2019-05-23T18:11:20.569Z,98687.37
2019-05-23T18:13:50.164Z,98690.61
2019-05-23T18:16:19.937Z,98688.80
2019-05-23T18:18:48.668Z,98692.30
2019-05-23T18:21:17.387Z,98693.62
2019-05-23T18:23:46.294Z,98697.07
2019-05-23T18:26:15.017Z,98697.53
2019-05-23T18:28:44.344Z,98699.89
2019-05-23T18:31:18.132Z,98700.64
2019-05-23T18:33:47.258Z,98702.06
2019-05-23T18:36:16.417Z,98699.88
2019-05-23T18:38:46.262Z,98699.16
2019-05-23T18:41:15.582Z,98704.05
2019-05-23T18:43:45.468Z,98705.75
2019-05-23T18:46:24.739Z,98709.14
2019-05-23T18:48:54.466Z,98699.95
2019-05-23T18:51:23.922Z,98712.42
2019-05-23T18:53:52.994Z,98716.98
2019-05-23T18:56:21.901Z,98711.81
2019-05-23T18:58:51.099Z,98715.89
2019-05-23T19:01:25.715Z,98716.61
2019-05-23T19:03:55.924Z,98718.12
2019-05-23T19:06:25.055Z,98716.29
2019-05-23T19:08:54.464Z,98718.30
2019-05-23T19:11:23.682Z,98712.38
2019-05-23T19:13:55.191Z,98717.31
2019-05-23T19:16:24.616Z,98718.95
2019-05-23T19:18:53.860Z,98720.28
2019-05-23T19:21:23.441Z,98725.33
2019-05-23T19:23:52.721Z,98722.77
2019-05-23T19:26:22.951Z,98729.33
2019-05-23T19:28:52.167Z,98722.75
2019-05-23T19:31:21.683Z,98721.74
2019-05-23T19:33:51.140Z,98719.36
2019-05-23T19:36:20.383Z,98725.22
2019-05-23T19:38:49.777Z,98721.86
2019-05-23T19:41:34.472Z,98718.00
2019-05-23T19:43:50.641Z,98716.99
2019-05-23T19:46:19.610Z,98714.59
2019-05-23T19:48:48.485Z,98715.89
2019-05-23T19:51:18.050Z,98714.75
2019-05-23T19:53:47.028Z,98715.27
2019-05-23T19:56:16.040Z,98714.77
2019-05-23T19:58:45.116Z,98714.70
2019-05-23T20:01:14.405Z,98717.81
2019-05-23T20:03:43.765Z,98713.34
2019-05-23T20:06:13.384Z,98710.16
2019-05-23T20:08:42.502Z,98707.94
2019-05-23T20:11:11.506Z,98711.80
2019-05-23T20:13:40.441Z,98709.44
2019-05-23T20:16:09.450Z,98709.41
2019-05-23T20:18:38.191Z,98710.06
2019-05-23T20:21:07.264Z,98710.41
2019-05-23T20:23:36.061Z,98717.08
2019-05-23T20:26:08.103Z,98714.39
2019-05-23T20:28:39.891Z,98713.64
2019-05-23T20:31:07.141Z,98715.48
2019-05-23T20:33:36.175Z,98715.71
2019-05-23T20:36:13.235Z,98704.83
2019-05-23T20:38:42.145Z,98709.14
2019-05-23T20:41:11.352Z,98710.38
2019-05-23T20:43:40.076Z,98706.15
2019-05-23T20:46:09.058Z,98708.31
2019-05-23T20:48:37.983Z,98707.63
2019-05-23T20:51:07.641Z,98709.97
2019-05-23T20:53:36.686Z,98708.62
2019-05-23T20:56:05.608Z,98706.15
2019-05-23T20:58:34.425Z,98704.45
2019-05-23T21:01:09.913Z,98707.70
2019-05-23T21:03:38.989Z,98705.19
2019-05-23T21:06:07.928Z,98710.02
2019-05-23T21:08:36.768Z,98704.23
2019-05-23T21:11:05.637Z,98706.31
2019-05-23T21:13:34.383Z,98702.71
2019-05-23T21:16:04.367Z,98699.98
2019-05-23T21:18:33.397Z,98701.34
2019-05-23T21:21:02.134Z,98699.08
2019-05-23T21:23:30.987Z,98709.10
2019-05-23T21:26:05.909Z,98703.50
2019-05-23T21:28:35.318Z,98702.34
2019-05-23T21:31:07.687Z,98708.30
2019-05-23T21:33:36.625Z,98707.36
2019-05-23T21:36:05.542Z,98707.75
2019-05-23T21:38:34.343Z,98709.78
2019-05-23T21:41:03.792Z,98714.58
2019-05-23T21:43:32.686Z,98705.22
2019-05-23T21:46:01.408Z,98706.23
2019-05-23T21:48:30.394Z,98712.23
2019-05-23T21:50:59.206Z,98718.43
2019-05-23T21:53:28.222Z,98712.51
2019-05-23T21:55:57.024Z,98721.63
2019-05-23T21:58:26.027Z,98720.68
2019-05-23T22:01:25.175Z,98716.20
2019-05-23T22:04:12.120Z,98708.98
2019-05-23T22:06:43.466Z,98708.92
2019-05-23T22:09:13.222Z,98715.83
2019-05-23T22:11:42.271Z,98711.02
2019-05-23T22:14:11.349Z,98709.91
2019-05-23T22:16:40.364Z,98703.64
2019-05-23T22:19:11.930Z,98708.99
2019-05-23T22:21:40.672Z,98707.23
2019-05-23T22:24:09.760Z,98701.95
2019-05-23T22:26:38.542Z,98706.84
2019-05-23T22:29:07.588Z,98699.37
2019-05-23T22:31:36.500Z,98695.29
2019-05-23T22:34:11.926Z,98690.11
2019-05-23T22:36:41.727Z,98694.19
2019-05-23T22:39:10.616Z,98699.17
2019-05-23T22:41:39.408Z,98701.64
2019-05-23T22:44:08.459Z,98694.95
2019-05-23T22:46:37.893Z,98694.45
2019-05-23T22:49:06.625Z,98693.62
2019-05-23T22:51:35.713Z,98693.23
2019-05-23T22:54:04.620Z,98694.73
2019-05-23T22:56:33.327Z,98695.03
2019-05-23T22:59:02.340Z,98693.69
2019-05-23T23:01:31.046Z,98690.46
2019-05-23T23:03:59.856Z,98688.48
2019-05-23T23:06:28.873Z,98687.78
2019-05-23T23:08:57.733Z,98683.27
2019-05-23T23:11:26.424Z,98680.06
2019-05-23T23:13:55.215Z,98681.17
2019-05-23T23:16:23.959Z,98683.42
2019-05-23T23:18:52.692Z,98687.88
2019-05-23T23:21:21.431Z,98681.87
2019-05-23T23:23:50.418Z,98677.45
2019-05-23T23:26:19.367Z,98677.58
2019-05-23T23:28:48.076Z,98679.52
2019-05-23T23:31:16.810Z,98674.47
2019-05-23T23:33:45.833Z,98676.28
2019-05-23T23:36:14.577Z,98674.06
2019-05-23T23:38:43.382Z,98678.95
2019-05-23T23:41:12.084Z,98676.11
2019-05-23T23:43:58.003Z,98672.30
2019-05-23T23:46:30.301Z,98675.17
2019-05-23T23:49:16.965Z,98668.84
2019-05-23T23:52:03.324Z,98667.52
2019-05-23T23:54:50.035Z,98667.70
2019-05-23T23:57:36.377Z,98671.77
